Time;durP1;ratioP1;P1;durP2;ratioP2;P2;SDS_P1;SDS_P2;PMS_P1;PMS_P2;Temp;Humidity;BMP_temperature;BMP_pressure;BME280_temperature;BME280_humidity;BME280_pressure;Samples;Min_cycle;Max_cycle;Signal;HPM_P1;HPM_P2
2021/01/31 00:01:35;;;;;;;15.43;9.30;;;0.70;80.50;;;;;;4918037;29;20409;-72
2021/01/31 00:04:01;;;;;;;15.27;9.43;;;0.70;80.60;;;;;;4918199;29;20480;-71
2021/01/31 00:06:26;;;;;;;16.67;10.23;;;0.70;80.70;;;;;;4916518;29;20111;-72
2021/01/31 00:08:52;;;;;;;17.48;10.23;;;0.70;80.60;;;;;;4916265;29;20048;-71
2021/01/31 00:11:18;;;;;;;18.88;10.52;;;0.70;80.40;;;;;;4917875;29;20028;-72
2021/01/31 00:13:44;;;;;;;17.42;10.52;;;0.60;80.30;;;;;;4900588;29;20115;-71
2021/01/31 00:16:11;;;;;;;17.88;10.15;;;0.60;80.50;;;;;;4917617;29;20020;-71
2021/01/31 00:18:37;;;;;;;16.42;9.85;;;0.60;81.30;;;;;;4900696;29;20035;-71
2021/01/31 00:21:03;;;;;;;17.08;10.43;;;0.60;80.70;;;;;;4917682;29;20103;-71
2021/01/31 00:23:28;;;;;;;20.25;11.43;;;0.60;80.90;;;;;;4900613;29;20017;-71
2021/01/31 00:25:54;;;;;;;17.10;10.25;;;0.60;80.60;;;;;;4916958;29;20036;-71
2021/01/31 00:28:23;;;;;;;18.00;10.10;;;0.50;80.60;;;;;;4900735;29;20020;-71
2021/01/31 00:30:49;;;;;;;20.27;11.40;;;0.50;80.80;;;;;;4917460;29;20027;-71
2021/01/31 00:33:25;;;;;;;17.50;10.23;;;0.50;80.90;;;;;;4917517;29;20032;-71
2021/01/31 00:35:52;;;;;;;17.60;10.63;;;0.50;80.90;;;;;;4900250;29;20049;-71
2021/01/31 00:38:21;;;;;;;16.77;10.02;;;0.50;80.90;;;;;;4917265;29;20031;-71
2021/01/31 00:40:47;;;;;;;17.88;10.95;;;0.50;81.00;;;;;;4900305;29;20066;-71
2021/01/31 00:43:14;;;;;;;18.13;10.82;;;0.50;81.00;;;;;;4917304;29;20028;-71
2021/01/31 00:45:40;;;;;;;17.02;10.68;;;0.50;81.00;;;;;;4917290;29;20468;-71
2021/01/31 00:48:06;;;;;;;16.73;9.73;;;0.50;81.00;;;;;;4900251;29;20089;-71
2021/01/31 00:50:35;;;;;;;18.27;10.68;;;0.50;81.10;;;;;;4915826;29;20031;-71
2021/01/31 00:53:01;;;;;;;19.80;11.23;;;0.50;80.90;;;;;;4899932;29;20168;-71
2021/01/31 00:55:27;;;;;;;20.58;11.45;;;0.40;81.00;;;;;;4900107;29;20039;-71
2021/01/31 00:57:52;;;;;;;21.10;11.57;;;0.30;81.00;;;;;;4899969;29;20029;-71
2021/01/31 01:00:30;;;;;;;18.13;10.27;;;0.30;81.20;;;;;;4900012;29;20072;-72
2021/01/31 01:02:56;;;;;;;18.63;11.32;;;0.30;81.30;;;;;;4916999;29;20033;-71
2021/01/31 01:05:24;;;;;;;17.92;10.70;;;0.30;81.30;;;;;;4917085;29;20046;-71
2021/01/31 01:07:50;;;;;;;16.45;10.27;;;0.40;81.40;;;;;;4896572;29;20040;-71
2021/01/31 01:10:20;;;;;;;17.25;10.50;;;0.40;81.30;;;;;;4898091;29;20119;-71
2021/01/31 01:12:46;;;;;;;16.83;10.40;;;0.30;81.20;;;;;;4897807;29;20025;-71
2021/01/31 01:15:14;;;;;;;18.73;11.07;;;0.30;81.30;;;;;;4898130;29;20039;-71
2021/01/31 01:17:39;;;;;;;18.05;10.48;;;0.40;81.20;;;;;;4896470;29;20107;-71
2021/01/31 01:20:06;;;;;;;19.55;10.68;;;0.30;81.20;;;;;;4912158;29;20143;-71
2021/01/31 01:22:33;;;;;;;17.13;10.45;;;0.30;81.20;;;;;;4912318;29;20072;-71
2021/01/31 01:25:02;;;;;;;16.15;9.32;;;0.30;81.20;;;;;;4912093;29;20024;-71
2021/01/31 01:27:29;;;;;;;17.50;10.40;;;0.20;81.30;;;;;;4896333;29;20025;-71
2021/01/31 01:29:54;;;;;;;15.25;9.52;;;0.20;81.40;;;;;;4896277;29;20021;-71
2021/01/31 01:32:20;;;;;;;16.75;10.07;;;0.20;81.40;;;;;;4912104;29;20511;-71
2021/01/31 01:34:46;;;;;;;15.75;9.32;;;0.30;81.50;;;;;;4896267;29;20035;-71
2021/01/31 01:37:13;;;;;;;17.90;10.88;;;0.30;81.40;;;;;;4912729;29;20031;-71
2021/01/31 01:39:39;;;;;;;16.63;9.75;;;0.30;81.50;;;;;;4915843;29;20039;-71
2021/01/31 01:42:09;;;;;;;16.45;10.05;;;0.20;81.30;;;;;;4901470;29;20109;-71
2021/01/31 01:44:36;;;;;;;16.70;9.98;;;0.20;81.40;;;;;;4901458;29;20481;-71
2021/01/31 01:47:03;;;;;;;16.58;10.18;;;0.20;81.40;;;;;;4900124;29;20059;-70
2021/01/31 01:49:32;;;;;;;15.63;9.75;;;0.20;81.30;;;;;;4899976;29;20048;-71
2021/01/31 01:52:08;;;;;;;15.45;9.55;;;0.20;81.40;;;;;;4899873;29;20047;-70
2021/01/31 01:54:37;;;;;;;18.77;10.35;;;0.20;82.00;;;;;;4915805;29;20028;-71
2021/01/31 01:57:08;;;;;;;15.55;9.43;;;0.10;81.40;;;;;;4915708;29;20104;-71
2021/01/31 01:59:36;;;;;;;16.27;9.30;;;0.10;81.50;;;;;;4901380;29;20036;-70
2021/01/31 02:02:22;;;;;;;17.05;10.13;;;0.10;81.50;;;;;;4901505;29;20052;-70
2021/01/31 02:04:49;;;;;;;16.45;9.98;;;0.10;81.40;;;;;;4899846;29;20028;-70
2021/01/31 02:07:14;;;;;;;15.75;9.50;;;0.10;81.60;;;;;;4899698;29;20037;-70
2021/01/31 02:09:45;;;;;;;17.60;10.10;;;0.10;81.60;;;;;;4901101;29;20024;-70
2021/01/31 02:12:13;;;;;;;16.50;9.65;;;0.10;81.60;;;;;;4899833;29;20044;-70
2021/01/31 02:14:41;;;;;;;19.17;10.43;;;0.10;81.60;;;;;;4901079;29;20052;-70
2021/01/31 02:17:18;;;;;;;17.55;9.85;;;0.10;81.70;;;;;;4900955;29;20031;-71
2021/01/31 02:20:22;;;;;;;17.73;10.90;;;0.10;81.80;;;;;;4915316;29;20084;-70
2021/01/31 02:23:07;;;;;;;15.93;10.15;;;0.10;81.70;;;;;;4900988;29;20028;-71
2021/01/31 02:25:52;;;;;;;18.67;10.90;;;0.10;81.70;;;;;;4899482;29;20033;-70
2021/01/31 02:28:23;;;;;;;16.48;10.07;;;0.00;81.60;;;;;;4899507;29;20035;-71
2021/01/31 02:31:08;;;;;;;16.17;9.70;;;0.00;81.80;;;;;;4899935;29;20361;-71
2021/01/31 02:34:11;;;;;;;16.30;9.40;;;0.00;81.90;;;;;;4900725;29;20036;-71
2021/01/31 02:37:14;;;;;;;15.63;9.45;;;0.00;81.80;;;;;;4879732;29;20493;-72
2021/01/31 02:39:51;;;;;;;15.32;9.60;;;0.10;81.80;;;;;;4914665;29;20507;-70
2021/01/31 02:42:22;;;;;;;15.73;9.57;;;0.10;81.80;;;;;;4900496;29;20064;-69
2021/01/31 02:45:02;;;;;;;17.70;10.05;;;0.10;81.80;;;;;;4900500;29;20040;-70
2021/01/31 02:47:31;;;;;;;17.35;9.75;;;0.10;81.90;;;;;;4899113;29;20037;-71
2021/01/31 02:50:03;;;;;;;16.33;9.77;;;0.10;81.90;;;;;;4899770;29;20055;-71
2021/01/31 02:52:48;;;;;;;16.33;9.70;;;0.10;81.90;;;;;;4900375;29;20430;-71
2021/01/31 02:55:23;;;;;;;16.65;9.85;;;0.10;82.00;;;;;;4900210;29;20025;-71
2021/01/31 02:58:05;;;;;;;16.35;9.23;;;0.10;81.90;;;;;;4899910;29;20044;-71
2021/01/31 03:00:38;;;;;;;17.10;10.25;;;0.10;81.90;;;;;;4914580;29;20055;-71
2021/01/31 03:03:16;;;;;;;18.20;10.10;;;0.10;81.90;;;;;;4899987;29;20044;-71
2021/01/31 03:05:52;;;;;;;16.90;10.00;;;0.10;82.00;;;;;;4898831;29;20056;-71
2021/01/31 03:08:21;;;;;;;19.20;10.27;;;0.10;82.00;;;;;;4911278;29;20056;-71
2021/01/31 03:10:51;;;;;;;16.17;9.35;;;0.10;81.90;;;;;;4918967;29;20036;-70
2021/01/31 03:13:27;;;;;;;18.35;10.43;;;0.10;81.80;;;;;;4918594;29;20059;-71
2021/01/31 03:16:15;;;;;;;16.33;9.88;;;0.10;81.90;;;;;;4918539;29;20114;-71
2021/01/31 03:18:42;;;;;;;17.35;10.63;;;0.10;82.00;;;;;;4918346;29;20061;-70
2021/01/31 03:21:17;;;;;;;22.65;10.77;;;0.10;81.90;;;;;;4901386;29;20029;-71
2021/01/31 03:23:47;;;;;;;16.33;9.85;;;0.10;81.80;;;;;;4918380;29;20032;-71
2021/01/31 03:26:40;;;;;;;18.60;10.82;;;0.00;81.80;;;;;;4918447;29;20020;-71
2021/01/31 03:29:06;;;;;;;17.80;10.10;;;0.00;81.80;;;;;;4901355;29;20123;-71
2021/01/31 03:31:36;;;;;;;16.52;9.88;;;0.00;81.80;;;;;;4918421;29;20479;-70
2021/01/31 03:34:09;;;;;;;16.52;10.27;;;0.00;81.90;;;;;;4918259;29;20504;-71
2021/01/31 03:36:42;;;;;;;17.63;10.00;;;0.00;81.90;;;;;;4918737;29;20036;-71
2021/01/31 03:39:09;;;;;;;17.63;9.95;;;-0.10;81.70;;;;;;4901047;29;20056;-71
2021/01/31 03:41:35;;;;;;;17.58;9.95;;;-0.10;82.00;;;;;;4918177;29;20032;-71
2021/01/31 03:44:00;;;;;;;16.63;9.50;;;-0.10;81.90;;;;;;4917356;29;20465;-71
2021/01/31 03:46:34;;;;;;;16.95;9.48;;;-0.10;81.90;;;;;;4900991;29;20038;-71
2021/01/31 03:49:02;;;;;;;;;;;0.00;82.00;;;;;;4918640;29;20020;-70
2021/01/31 03:51:30;;;;;;;16.85;8.88;;;-0.10;81.90;;;;;;4917761;29;19914;-71
2021/01/31 03:53:56;;;;;;;18.77;10.45;;;-0.20;81.70;;;;;;4917733;29;20499;-70
2021/01/31 03:56:31;;;;;;;17.23;10.00;;;-0.20;81.80;;;;;;4900731;29;20377;-70
2021/01/31 03:58:58;;;;;;;18.95;10.50;;;-0.20;82.10;;;;;;4918104;29;20032;-70
2021/01/31 04:01:26;;;;;;;17.55;9.93;;;-0.20;82.10;;;;;;4916880;29;20102;-71
2021/01/31 04:04:13;;;;;;;16.20;9.75;;;-0.20;82.10;;;;;;4917812;29;20024;-71
2021/01/31 04:06:40;;;;;;;15.95;9.45;;;-0.20;82.10;;;;;;4916197;29;20024;-70
2021/01/31 04:09:08;;;;;;;16.40;10.32;;;-0.20;82.10;;;;;;4917402;29;20051;-71
2021/01/31 04:11:37;;;;;;;18.27;10.25;;;-0.20;82.00;;;;;;4917436;29;20106;-71
2021/01/31 04:14:15;;;;;;;18.20;9.93;;;-0.20;82.00;;;;;;4917524;29;20052;-70
2021/01/31 04:16:45;;;;;;;18.75;10.50;;;-0.20;82.20;;;;;;4916149;29;20064;-71
2021/01/31 04:19:12;;;;;;;16.17;9.85;;;-0.20;82.20;;;;;;4900238;29;20032;-71
2021/01/31 04:21:38;;;;;;;34.47;16.38;;;-0.20;82.30;;;;;;4917532;29;20024;-70
2021/01/31 04:24:04;;;;;;;28.88;14.82;;;-0.20;82.30;;;;;;4917323;29;20080;-71
2021/01/31 04:26:30;;;;;;;22.40;11.82;;;-0.20;82.30;;;;;;4917269;29;20032;-71
2021/01/31 04:28:55;;;;;;;18.00;10.55;;;-0.20;82.30;;;;;;4916013;29;20578;-71
2021/01/31 04:31:21;;;;;;;17.88;10.55;;;-0.20;82.30;;;;;;4917344;29;20079;-71
2021/01/31 04:33:47;;;;;;;19.23;10.77;;;-0.10;82.30;;;;;;4900068;29;20024;-71
2021/01/31 04:36:12;;;;;;;20.20;10.65;;;-0.20;82.30;;;;;;4917160;29;20032;-70
2021/01/31 04:38:38;;;;;;;20.23;10.30;;;-0.20;82.20;;;;;;4917401;29;20028;-71
2021/01/31 04:41:03;;;;;;;16.55;9.60;;;-0.20;82.20;;;;;;4916316;29;20465;-70
2021/01/31 04:43:29;;;;;;;17.67;9.68;;;-0.20;82.20;;;;;;4917193;29;20020;-71
2021/01/31 04:45:57;;;;;;;16.63;9.20;;;-0.20;82.30;;;;;;4916831;29;20107;-71
2021/01/31 04:49:00;;;;;;;17.15;9.27;;;-0.20;82.30;;;;;;4916838;29;20039;-71
2021/01/31 04:51:35;;;;;;;16.25;9.50;;;-0.20;82.30;;;;;;4916900;29;20028;-71
2021/01/31 04:54:07;;;;;;;16.33;9.32;;;-0.30;82.20;;;;;;4916898;29;20020;-70
2021/01/31 04:56:39;;;;;;;15.70;9.32;;;-0.30;82.30;;;;;;4915568;29;20055;-71
2021/01/31 04:59:27;;;;;;;17.10;9.50;;;-0.30;82.30;;;;;;4917338;29;20032;-71
2021/01/31 05:02:05;;;;;;;17.38;9.68;;;-0.30;82.20;;;;;;4917163;29;20099;-70
2021/01/31 05:04:39;;;;;;;16.90;9.57;;;-0.30;82.20;;;;;;4916773;29;20025;-70
2021/01/31 05:07:06;;;;;;;;;;;-0.30;82.30;;;;;;4916918;29;20036;-71
2021/01/31 05:09:31;;;;;;;14.57;8.48;;;-0.30;82.30;;;;;;4915330;29;19965;-71
2021/01/31 05:12:13;;;;;;;16.98;9.48;;;-0.30;82.20;;;;;;4916458;29;20064;-71
2021/01/31 05:15:02;;;;;;;15.27;8.90;;;-0.30;82.20;;;;;;4915288;29;20040;-71
2021/01/31 05:17:29;;;;;;;14.75;8.38;;;-0.30;82.20;;;;;;4915420;29;20031;-71
2021/01/31 05:19:56;;;;;;;17.13;9.13;;;-0.30;82.20;;;;;;4916761;29;20041;-70
2021/01/31 05:22:27;;;;;;;16.77;9.55;;;-0.30;82.20;;;;;;4916711;29;20024;-70
2021/01/31 05:24:54;;;;;;;14.80;9.07;;;-0.30;82.30;;;;;;4916467;29;20054;-71
2021/01/31 05:27:23;;;;;;;17.48;9.40;;;-0.30;82.40;;;;;;4916569;29;20032;-71
2021/01/31 05:29:49;;;;;;;16.10;9.20;;;-0.30;82.20;;;;;;4916420;29;20120;-70
2021/01/31 05:32:17;;;;;;;16.50;9.48;;;-0.30;82.20;;;;;;4915323;29;20055;-71
2021/01/31 05:34:46;;;;;;;15.55;9.35;;;-0.30;82.10;;;;;;4916361;29;20124;-70
2021/01/31 05:37:23;;;;;;;16.15;9.52;;;-0.30;82.30;;;;;;4916343;29;20037;-71
2021/01/31 05:39:59;;;;;;;17.73;10.05;;;-0.30;82.30;;;;;;4916529;29;20043;-71
2021/01/31 05:42:29;;;;;;;14.93;9.07;;;-0.30;82.30;;;;;;4916543;29;20040;-71
2021/01/31 05:45:13;;;;;;;16.48;9.25;;;-0.40;82.30;;;;;;4915005;29;20025;-71
2021/01/31 05:47:42;;;;;;;16.98;9.27;;;-0.40;82.30;;;;;;4916332;29;20024;-71
2021/01/31 05:50:35;;;;;;;15.90;9.55;;;-0.40;82.30;;;;;;4915572;29;20020;-70
2021/01/31 05:53:23;;;;;;;16.63;9.40;;;-0.30;82.50;;;;;;4914824;29;20540;-71
2021/01/31 05:55:49;;;;;;;15.73;8.90;;;-0.30;82.30;;;;;;4914994;29;20294;-70
2021/01/31 05:58:24;;;;;;;15.70;8.57;;;-0.30;82.40;;;;;;4916250;29;20029;-70
2021/01/31 06:01:16;;;;;;;17.40;9.82;;;-0.30;82.30;;;;;;4916370;29;20095;-70
2021/01/31 06:03:42;;;;;;;16.70;9.73;;;-0.30;82.40;;;;;;4897549;29;20036;-71
2021/01/31 06:06:24;;;;;;;17.42;9.70;;;-0.40;82.40;;;;;;4916157;29;20489;-70
2021/01/31 06:08:54;;;;;;;18.75;9.77;;;-0.30;82.40;;;;;;4915990;29;20044;-70
2021/01/31 06:11:26;;;;;;;18.63;10.07;;;-0.30;82.40;;;;;;4916318;29;20048;-71
2021/01/31 06:14:09;;;;;;;17.17;10.77;;;-0.30;82.40;;;;;;4899119;29;20083;-71
2021/01/31 06:16:36;;;;;;;17.08;9.63;;;-0.30;82.30;;;;;;4915797;29;20512;-72
2021/01/31 06:19:10;;;;;;;16.40;9.27;;;-0.30;82.30;;;;;;4914414;29;20033;-71
2021/01/31 06:21:46;;;;;;;18.17;9.80;;;-0.30;82.30;;;;;;4914606;29;20374;-71
2021/01/31 06:24:22;;;;;;;17.75;10.05;;;-0.30;82.20;;;;;;4915923;29;20481;-71
2021/01/31 06:26:48;;;;;;;16.40;9.27;;;-0.30;82.20;;;;;;4919444;29;20024;-70
2021/01/31 06:29:30;;;;;;;17.70;9.88;;;-0.30;82.10;;;;;;4918300;29;20433;-71
2021/01/31 06:32:01;;;;;;;16.90;10.10;;;-0.30;82.20;;;;;;4919330;29;20035;-71
2021/01/31 06:34:27;;;;;;;17.20;9.80;;;-0.30;82.10;;;;;;4902274;29;20020;-70
2021/01/31 06:37:03;;;;;;;17.95;9.95;;;-0.30;82.20;;;;;;4919246;29;20038;-71
2021/01/31 06:40:18;;;;;;;17.35;10.23;;;-0.30;82.20;;;;;;4919538;29;20028;-71
2021/01/31 06:42:58;;;;;;;17.13;10.23;;;-0.30;82.20;;;;;;4910426;29;20035;-71
2021/01/31 06:45:42;;;;;;;15.65;9.00;;;-0.40;82.10;;;;;;4919005;29;20028;-70
2021/01/31 06:48:40;;;;;;;16.98;9.55;;;-0.40;82.10;;;;;;4917592;29;20044;-71
2021/01/31 06:51:34;;;;;;;16.50;9.93;;;-0.40;82.10;;;;;;4917928;29;20056;-70
2021/01/31 06:54:21;;;;;;;16.67;9.57;;;-0.40;82.30;;;;;;4918931;29;20032;-71
2021/01/31 06:57:01;;;;;;;19.10;10.23;;;-0.50;82.10;;;;;;4917516;29;20051;-71
2021/01/31 06:59:51;;;;;;;17.42;10.00;;;-0.50;82.00;;;;;;4918649;29;20035;-72
2021/01/31 07:02:33;;;;;;;16.73;9.40;;;-0.60;82.10;;;;;;4919061;29;20452;-71
2021/01/31 07:05:36;;;;;;;18.73;10.02;;;-0.60;82.10;;;;;;4918640;29;20528;-71
2021/01/31 07:08:29;;;;;;;16.27;9.63;;;-0.60;82.10;;;;;;4901365;29;20044;-71
2021/01/31 07:11:03;;;;;;;19.33;10.50;;;-0.60;82.20;;;;;;4918430;29;20035;-71
2021/01/31 07:13:57;;;;;;;16.83;9.32;;;-0.60;82.30;;;;;;4918432;29;20364;-71
2021/01/31 07:16:30;;;;;;;17.38;10.13;;;-0.60;82.30;;;;;;4918482;29;20055;-71
2021/01/31 07:19:14;;;;;;;19.98;10.50;;;-0.60;82.30;;;;;;4918150;29;20091;-71
2021/01/31 07:22:05;;;;;;;18.00;9.75;;;-0.60;82.30;;;;;;4901289;29;20437;-71
2021/01/31 07:25:17;;;;;;;16.30;9.07;;;-0.50;82.30;;;;;;4917318;29;20172;-70
2021/01/31 07:27:54;;;;;;;17.75;10.07;;;-0.50;82.10;;;;;;4878512;29;20033;-70
2021/01/31 07:30:24;;;;;;;16.95;9.80;;;-0.50;82.20;;;;;;4899251;29;20036;-71
2021/01/31 07:33:02;;;;;;;18.10;9.77;;;-0.50;82.20;;;;;;4917036;29;20043;-72
2021/01/31 07:35:34;;;;;;;17.60;9.98;;;-0.50;82.20;;;;;;4917961;29;20016;-72
2021/01/31 07:38:11;;;;;;;18.48;10.57;;;-0.50;82.30;;;;;;4917941;29;20074;-72
2021/01/31 07:40:36;;;;;;;16.80;9.60;;;-0.40;82.20;;;;;;4901019;29;20091;-72
2021/01/31 07:43:04;;;;;;;18.88;10.55;;;-0.40;82.20;;;;;;4917905;29;20020;-72
2021/01/31 07:45:30;;;;;;;17.42;10.45;;;-0.40;82.10;;;;;;4916588;29;20114;-71
2021/01/31 07:48:28;;;;;;;17.40;9.90;;;-0.40;82.00;;;;;;4916531;29;20440;-72
2021/01/31 07:50:54;;;;;;;17.90;10.25;;;-0.30;82.00;;;;;;4916273;29;20414;-72
2021/01/31 07:53:35;;;;;;;17.88;10.30;;;-0.30;82.00;;;;;;4917690;29;20043;-72
2021/01/31 07:56:29;;;;;;;16.08;9.48;;;-0.30;81.90;;;;;;4917672;29;20099;-72
2021/01/31 07:58:58;;;;;;;19.13;10.38;;;-0.30;81.80;;;;;;4916308;29;20388;-72
2021/01/31 08:01:42;;;;;;;17.13;10.00;;;-0.20;81.80;;;;;;4917646;29;20029;-72
2021/01/31 08:04:16;;;;;;;20.30;10.57;;;-0.20;81.60;;;;;;4917546;29;20028;-71
2021/01/31 08:06:45;;;;;;;18.33;10.35;;;-0.20;81.60;;;;;;4900568;29;20484;-71
2021/01/31 08:09:32;;;;;;;20.08;10.25;;;-0.20;81.80;;;;;;4917470;29;20044;-72
2021/01/31 08:12:09;;;;;;;18.77;10.00;;;-0.10;81.60;;;;;;4910968;29;20056;-71
2021/01/31 08:15:00;;;;;;;18.13;10.00;;;-0.10;81.60;;;;;;4917626;29;20362;-72
2021/01/31 08:17:50;;;;;;;17.90;9.48;;;0.00;81.60;;;;;;4917653;29;20035;-72
2021/01/31 08:20:28;;;;;;;17.85;9.65;;;0.00;81.50;;;;;;4917393;29;20048;-72
2021/01/31 08:23:02;;;;;;;17.42;10.20;;;0.10;81.30;;;;;;4916041;29;20039;-72
2021/01/31 08:25:33;;;;;;;19.40;10.32;;;0.10;81.20;;;;;;4917743;29;20055;-71
2021/01/31 08:28:02;;;;;;;16.50;9.65;;;0.20;81.20;;;;;;4900364;29;20036;-71
2021/01/31 08:30:59;;;;;;;17.25;10.20;;;0.20;81.10;;;;;;4915969;29;20032;-71
2021/01/31 08:33:27;;;;;;;17.67;9.40;;;0.30;81.10;;;;;;4900235;29;20103;-72
2021/01/31 08:36:05;;;;;;;18.77;10.38;;;0.30;81.00;;;;;;4917253;29;20492;-71
2021/01/31 08:38:47;;;;;;;16.63;9.60;;;0.40;81.00;;;;;;4900346;29;20055;-72
2021/01/31 08:41:22;;;;;;;15.57;9.15;;;0.40;80.80;;;;;;4915920;29;20028;-72
2021/01/31 08:43:51;;;;;;;19.40;10.18;;;0.50;80.80;;;;;;4915901;29;20031;-71
2021/01/31 08:46:18;;;;;;;15.88;9.90;;;0.50;80.60;;;;;;4900012;29;20055;-71
2021/01/31 08:48:52;;;;;;;16.83;9.80;;;0.60;80.40;;;;;;4916711;29;20028;-71
2021/01/31 08:51:19;;;;;;;18.42;10.05;;;0.60;81.00;;;;;;4916068;29;20028;-72
2021/01/31 08:54:00;;;;;;;30.75;14.15;;;0.70;80.60;;;;;;4916837;29;20338;-71
2021/01/31 08:56:35;;;;;;;27.45;11.43;;;0.80;80.30;;;;;;4899946;29;20032;-71
2021/01/31 08:59:01;;;;;;;19.90;9.82;;;0.80;80.10;;;;;;4899729;29;20107;-71
2021/01/31 09:01:27;;;;;;;17.55;9.85;;;0.90;79.90;;;;;;4916943;29;20472;-71
2021/01/31 09:03:53;;;;;;;18.10;9.50;;;0.90;79.90;;;;;;4899917;29;20024;-72
2021/01/31 09:06:20;;;;;;;15.70;9.38;;;1.00;79.70;;;;;;4916823;29;20021;-71
2021/01/31 09:12:20;;;;;;;18.55;10.38;;;1.10;79.40;;;;;;4917177;29;20392;-71
2021/01/31 09:14:46;;;;;;;13.82;8.32;;;1.20;79.30;;;;;;4900348;29;20028;-72
2021/01/31 09:17:21;;;;;;;13.93;8.57;;;1.20;79.10;;;;;;4915669;29;20024;-71
2021/01/31 09:19:47;;;;;;;16.17;9.23;;;1.20;78.70;;;;;;4915879;29;20036;-71
2021/01/31 09:22:18;;;;;;;15.25;8.23;;;1.20;78.70;;;;;;4916801;29;20024;-71
2021/01/31 09:24:46;;;;;;;15.95;8.90;;;1.20;78.70;;;;;;4916470;29;20469;-71
2021/01/31 09:27:22;;;;;;;15.07;8.80;;;1.20;78.80;;;;;;4915306;29;20072;-72
2021/01/31 09:29:53;;;;;;;14.30;8.20;;;1.10;78.70;;;;;;4916757;29;20107;-71
2021/01/31 09:32:21;;;;;;;14.02;8.55;;;1.10;78.60;;;;;;4915477;29;20039;-73
2021/01/31 09:34:49;;;;;;;13.07;8.27;;;1.10;78.70;;;;;;4915821;29;20021;-71
2021/01/31 09:37:30;;;;;;;19.27;10.40;;;1.00;78.70;;;;;;4916832;29;20126;-72
2021/01/31 09:40:00;;;;;;;13.80;8.60;;;1.00;78.60;;;;;;4916955;29;20032;-72
2021/01/31 09:42:36;;;;;;;15.45;8.90;;;1.00;78.80;;;;;;4916631;29;20031;-72
2021/01/31 09:45:28;;;;;;;16.20;9.35;;;1.00;78.80;;;;;;4915224;29;20025;-71
2021/01/31 09:47:55;;;;;;;15.35;9.30;;;1.00;78.70;;;;;;4915499;29;20065;-71
2021/01/31 09:50:21;;;;;;;16.90;9.98;;;1.00;78.70;;;;;;4916667;29;20028;-71
2021/01/31 09:52:49;;;;;;;16.95;9.43;;;1.00;78.60;;;;;;4916586;29;20099;-71
2021/01/31 09:55:44;;;;;;;16.10;10.10;;;1.10;78.60;;;;;;4916643;29;20021;-72
2021/01/31 09:58:19;;;;;;;27.02;13.18;;;1.10;78.40;;;;;;4899553;29;20028;-72
2021/01/31 10:00:45;;;;;;;18.88;10.32;;;1.10;78.40;;;;;;4920133;29;20020;-71
2021/01/31 10:03:29;;;;;;;16.30;9.75;;;1.10;78.40;;;;;;4918968;29;20083;-72
2021/01/31 10:06:11;;;;;;;16.33;9.90;;;1.10;78.30;;;;;;4918659;29;20425;-72
2021/01/31 10:08:40;;;;;;;17.23;10.05;;;1.20;78.20;;;;;;4920017;29;20126;-73
2021/01/31 10:11:25;;;;;;;16.83;9.75;;;1.20;78.20;;;;;;4918636;29;20452;-72
2021/01/31 10:13:51;;;;;;;15.70;9.07;;;1.30;78.00;;;;;;4920323;29;20028;-72
2021/01/31 10:16:23;;;;;;;10.63;6.68;;;1.30;77.80;;;;;;4920610;29;20354;-72
2021/01/31 10:18:49;;;;;;;12.88;7.75;;;1.30;78.10;;;;;;4918729;29;20039;-72
2021/01/31 10:21:29;;;;;;;14.98;8.93;;;1.30;78.40;;;;;;4918884;29;20118;-72
2021/01/31 10:24:04;;;;;;;15.38;9.13;;;1.30;78.60;;;;;;4920525;29;20028;-71
2021/01/31 10:26:30;;;;;;;18.27;10.13;;;1.30;78.30;;;;;;4918278;29;20079;-73
2021/01/31 10:29:03;;;;;;;14.82;8.85;;;1.30;78.80;;;;;;4902951;29;20024;-72
2021/01/31 10:31:36;;;;;;;16.13;9.63;;;1.30;78.10;;;;;;4919478;29;20424;-72
2021/01/31 10:34:04;;;;;;;16.48;9.52;;;1.30;78.10;;;;;;4920027;29;20390;-72
2021/01/31 10:36:41;;;;;;;14.70;8.05;;;1.30;78.10;;;;;;4918147;29;20027;-73
2021/01/31 10:39:10;;;;;;;14.77;8.60;;;1.40;78.10;;;;;;4917990;29;20068;-72
2021/01/31 10:41:43;;;;;;;12.35;7.35;;;1.50;78.30;;;;;;4919405;29;20047;-72
2021/01/31 10:44:19;;;;;;;12.13;7.32;;;1.50;78.60;;;;;;4919780;29;20047;-72
2021/01/31 10:46:45;;;;;;;12.45;7.93;;;1.60;78.90;;;;;;4918587;29;20076;-72
2021/01/31 10:49:10;;;;;;;16.52;9.90;;;1.70;78.70;;;;;;4919643;29;20028;-71
2021/01/31 10:51:37;;;;;;;14.52;8.38;;;1.80;78.50;;;;;;4919179;29;20051;-72
2021/01/31 10:54:04;;;;;;;14.48;9.02;;;1.80;78.20;;;;;;4919379;29;20032;-72
2021/01/31 10:56:30;;;;;;;16.58;9.73;;;1.80;77.90;;;;;;4917675;29;20020;-72
2021/01/31 10:58:56;;;;;;;16.42;9.57;;;1.80;77.70;;;;;;4902117;29;20028;-72
2021/01/31 11:01:22;;;;;;;16.55;9.98;;;1.80;77.70;;;;;;4917972;29;20560;-72
2021/01/31 11:03:49;;;;;;;14.98;9.13;;;1.90;77.60;;;;;;4917740;29;20503;-72
2021/01/31 11:06:15;;;;;;;16.17;9.32;;;1.90;77.40;;;;;;4919255;29;20031;-72
2021/01/31 11:08:41;;;;;;;17.73;10.40;;;1.90;77.30;;;;;;4918890;29;20054;-72
2021/01/31 11:11:07;;;;;;;15.63;9.70;;;2.00;77.20;;;;;;4901327;29;20428;-72
2021/01/31 11:13:33;;;;;;;18.27;10.07;;;2.00;77.20;;;;;;4902042;29;20391;-72
2021/01/31 11:15:59;;;;;;;14.00;8.75;;;2.10;77.10;;;;;;4919004;29;20031;-72
2021/01/31 11:18:24;;;;;;;16.67;10.30;;;2.10;77.00;;;;;;4917453;29;20028;-72
2021/01/31 11:20:50;;;;;;;13.75;8.30;;;2.20;76.90;;;;;;4901575;29;20449;-71
2021/01/31 11:23:16;;;;;;;13.50;8.88;;;2.20;76.80;;;;;;4918951;29;20024;-71
2021/01/31 11:25:42;;;;;;;16.85;9.57;;;2.20;76.80;;;;;;4917417;29;20021;-71
2021/01/31 11:28:08;;;;;;;17.88;9.52;;;2.30;76.70;;;;;;4917537;29;20153;-71
2021/01/31 11:30:34;;;;;;;16.88;9.73;;;2.30;76.70;;;;;;4918535;29;20063;-72
2021/01/31 11:33:00;;;;;;;16.67;10.00;;;2.40;76.50;;;;;;4917453;29;20020;-71
2021/01/31 11:35:27;;;;;;;15.13;9.55;;;2.40;76.50;;;;;;4918731;29;20112;-71
2021/01/31 11:37:53;;;;;;;16.52;10.27;;;2.50;76.40;;;;;;4917072;29;20182;-71
2021/01/31 11:40:20;;;;;;;15.95;9.75;;;2.60;76.30;;;;;;4901364;29;20024;-71
2021/01/31 11:42:46;;;;;;;14.73;9.38;;;2.70;76.20;;;;;;4918159;29;20029;-71
2021/01/31 11:45:14;;;;;;;14.88;8.80;;;2.80;76.10;;;;;;4918411;29;20032;-71
2021/01/31 11:47:40;;;;;;;15.45;9.32;;;2.90;75.80;;;;;;4916899;29;20021;-71
2021/01/31 11:50:08;;;;;;;13.95;8.85;;;3.00;75.40;;;;;;4918234;29;20036;-71
2021/01/31 11:52:34;;;;;;;14.15;7.82;;;2.90;75.50;;;;;;4917924;29;20039;-71
2021/01/31 11:54:59;;;;;;;12.63;8.30;;;3.00;75.50;;;;;;4918566;29;20028;-71
2021/01/31 11:57:25;;;;;;;14.48;8.75;;;3.00;75.40;;;;;;4916818;29;20388;-72
2021/01/31 11:59:51;;;;;;;15.88;9.45;;;3.10;75.40;;;;;;4916678;29;20158;-72
2021/01/31 12:02:16;;;;;;;14.52;9.65;;;3.10;75.30;;;;;;4916592;29;20031;-72
2021/01/31 12:04:42;;;;;;;18.00;9.93;;;3.10;74.80;;;;;;4900776;29;20059;-72
2021/01/31 12:07:09;;;;;;;12.75;8.20;;;3.10;75.00;;;;;;4917603;29;20028;-71
2021/01/31 12:09:35;;;;;;;14.07;8.30;;;3.20;75.70;;;;;;4917973;29;20481;-72
2021/01/31 12:12:01;;;;;;;14.25;8.63;;;3.20;74.90;;;;;;4917747;29;20477;-72
2021/01/31 12:14:27;;;;;;;11.30;7.18;;;3.30;74.80;;;;;;4916435;29;20131;-71
2021/01/31 12:16:53;;;;;;;12.63;8.18;;;3.40;74.80;;;;;;4916495;29;20073;-72
2021/01/31 12:19:21;;;;;;;13.77;7.78;;;3.40;74.70;;;;;;4916023;29;20566;-72
2021/01/31 12:21:47;;;;;;;11.70;7.47;;;3.40;74.60;;;;;;4915375;29;20067;-72
2021/01/31 12:24:12;;;;;;;13.88;8.68;;;3.50;74.60;;;;;;4917346;29;20480;-72
2021/01/31 12:26:38;;;;;;;11.95;7.82;;;3.50;74.30;;;;;;4917335;29;20020;-72
2021/01/31 12:29:04;;;;;;;12.55;8.15;;;3.50;74.30;;;;;;4915836;29;20047;-71
2021/01/31 12:31:30;;;;;;;13.27;8.32;;;3.60;74.30;;;;;;4915819;29;20035;-72
2021/01/31 12:33:56;;;;;;;10.98;7.57;;;3.60;74.30;;;;;;4917162;29;20029;-71
2021/01/31 12:36:21;;;;;;;14.77;8.23;;;3.60;74.20;;;;;;4915807;29;20492;-71
2021/01/31 12:38:47;;;;;;;13.23;8.20;;;3.70;74.10;;;;;;4915860;29;20440;-72
2021/01/31 12:41:13;;;;;;;13.85;8.32;;;3.80;74.10;;;;;;4915713;29;20134;-71
2021/01/31 12:43:39;;;;;;;11.52;7.75;;;3.80;73.90;;;;;;4915742;29;20043;-72
2021/01/31 12:46:04;;;;;;;11.65;7.55;;;3.80;73.70;;;;;;4915774;29;20164;-72
2021/01/31 12:48:30;;;;;;;10.80;7.15;;;3.90;73.70;;;;;;4917308;29;20035;-72
2021/01/31 12:50:56;;;;;;;11.45;7.20;;;3.90;73.50;;;;;;4917501;29;20028;-72
2021/01/31 12:53:21;;;;;;;12.15;8.02;;;4.00;73.60;;;;;;4917711;29;20040;-72
2021/01/31 12:55:47;;;;;;;11.90;8.48;;;4.10;73.30;;;;;;4916965;29;20031;-72
2021/01/31 12:58:13;;;;;;;11.93;7.75;;;4.10;73.20;;;;;;4915664;29;20028;-72
2021/01/31 13:00:38;;;;;;;13.18;8.00;;;4.10;73.10;;;;;;4916916;29;20021;-72
2021/01/31 13:03:04;;;;;;;12.10;7.55;;;4.20;73.10;;;;;;4915577;29;20035;-72
2021/01/31 13:05:31;;;;;;;12.30;7.45;;;4.10;73.00;;;;;;4916701;29;20456;-72
2021/01/31 13:07:58;;;;;;;13.90;8.48;;;4.10;72.90;;;;;;4915189;29;20356;-73
2021/01/31 13:10:25;;;;;;;11.35;7.50;;;4.00;72.80;;;;;;4916725;29;20366;-72